Time,TemperatureF,DewpointF,PressureIn,WindDirection,WindDirectionDegrees,WindSpeedMPH,WindSpeedGustMPH,Humidity,HourlyPrecipIn,Conditions,Clouds,dailyrainin,SoftwareType,DateUTC
2013-09-06 00:06:00,51.7,48.6,30.11,ENE,62,0.0,0.0,89,0.00,,OVC095,-99.99,VWS V12.07,2013-09-06 04:06:00,
2013-09-06 00:14:00,51.4,48.6,30.11,ENE,62,0.0,0.0,90,0.00,,OVC095,-99.99,VWS V12.07,2013-09-06 04:14:00,
2013-09-06 00:24:00,51.4,48.6,30.12,ENE,62,0.0,0.0,90,0.00,,OVC095,-99.99,VWS V12.07,2013-09-06 04:24:00,
2013-09-06 00:36:00,51.7,48.3,30.12,ENE,62,0.0,0.0,88,0.00,,OVC095,-99.99,VWS V12.07,2013-09-06 04:36:00,
2013-09-06 00:44:00,51.0,47.9,30.12,ENE,62,0.0,0.0,89,0.00,,OVC095,-99.99,VWS V12.07,2013-09-06 04:44:00,
2013-09-06 00:54:00,50.5,47.1,30.13,ENE,62,0.0,0.0,88,0.00,,OVC095,-99.99,VWS V12.07,2013-09-06 04:54:00,
2013-09-06 01:05:00,50.1,47.0,30.13,ENE,62,0.0,0.0,89,0.00,,OVC095,-99.99,VWS V12.07,2013-09-06 05:05:00,
2013-09-06 01:13:00,49.9,46.8,30.13,ENE,62,0.0,0.0,89,0.00,,OVC095,-99.99,VWS V12.07,2013-09-06 05:13:00,
2013-09-06 01:24:00,49.8,47.0,30.13,ENE,62,0.0,0.0,90,0.00,,OVC095,-99.99,VWS V12.07,2013-09-06 05:24:00,
2013-09-06 01:35:00,49.6,47.1,30.13,ENE,62,0.0,0.0,91,0.00,,OVC095,-99.99,VWS V12.07,2013-09-06 05:35:00,
2013-09-06 01:44:00,49.5,47.0,30.13,ENE,62,0.0,0.0,91,0.00,,OVC095,-99.99,VWS V12.07,2013-09-06 05:44:00,
2013-09-06 01:53:00,49.2,47.0,30.14,ENE,62,0.0,0.0,92,0.00,,OVC095,-99.99,VWS V12.07,2013-09-06 05:53:00,
2013-09-06 02:06:00,49.9,47.7,30.14,ENE,62,0.0,0.0,92,0.00,,OVC095,-99.99,VWS V12.07,2013-09-06 06:06:00,
2013-09-06 02:14:00,49.5,47.3,30.14,ENE,62,0.0,0.0,92,0.00,,OVC095,-99.99,VWS V12.07,2013-09-06 06:14:00,
2013-09-06 02:23:00,49.2,46.7,30.15,ENE,62,0.0,0.0,91,0.00,,OVC095,-99.99,VWS V12.07,2013-09-06 06:23:00,
2013-09-06 02:35:00,49.6,47.1,30.15,ENE,62,0.0,0.0,91,0.00,,OVC095,-99.99,VWS V12.07,2013-09-06 06:35:00,
2013-09-06 02:44:00,48.9,46.7,30.15,ENE,62,0.0,0.0,92,0.00,,OVC095,-99.99,VWS V12.07,2013-09-06 06:44:00,
2013-09-06 02:54:00,49.4,47.2,30.15,ENE,62,0.0,0.0,92,0.00,,OVC095,-99.99,VWS V12.07,2013-09-06 06:54:00,
2013-09-06 03:05:00,48.3,46.4,30.15,ENE,62,0.0,0.0,93,0.00,,OVC095,-99.99,VWS V12.07,2013-09-06 07:05:00,
2013-09-06 03:13:00,48.2,46.3,30.15,ENE,62,0.0,0.0,93,0.00,,OVC095,-99.99,VWS V12.07,2013-09-06 07:13:00,
2013-09-06 03:24:00,48.2,46.3,30.15,ENE,62,0.0,0.0,93,0.00,,OVC095,-99.99,VWS V12.07,2013-09-06 07:24:00,
2013-09-06 03:35:00,48.0,46.1,30.15,ENE,62,0.0,0.0,93,0.00,,OVC095,-99.99,VWS V12.07,2013-09-06 07:35:00,
2013-09-06 03:44:00,47.7,45.8,30.15,ENE,62,0.0,0.0,93,0.00,,OVC095,-99.99,VWS V12.07,2013-09-06 07:44:00,
2013-09-06 03:53:00,47.9,46.3,30.16,ENE,62,0.0,0.0,94,0.00,,OVC095,-99.99,VWS V12.07,2013-09-06 07:53:00,
2013-09-06 04:04:00,47.9,46.0,30.16,ENE,62,0.0,0.0,93,0.00,,OVC095,-99.99,VWS V12.07,2013-09-06 08:04:00,
2013-09-06 04:14:00,47.4,45.5,30.16,ENE,62,0.0,0.0,93,0.00,,OVC095,-99.99,VWS V12.07,2013-09-06 08:14:00,
2013-09-06 04:24:00,47.0,45.1,30.17,ENE,62,0.0,0.0,93,0.00,,OVC095,-99.99,VWS V12.07,2013-09-06 08:24:00,
2013-09-06 04:35:00,46.5,44.6,30.17,ENE,62,0.0,0.0,93,0.00,,OVC095,-99.99,VWS V12.07,2013-09-06 08:35:00,
2013-09-06 04:43:00,46.4,44.8,30.17,ENE,62,0.0,0.0,94,0.00,,OVC095,-99.99,VWS V12.07,2013-09-06 08:43:00,
2013-09-06 04:54:00,46.2,44.6,30.16,ENE,62,0.0,0.0,94,0.00,,OVC095,-99.99,VWS V12.07,2013-09-06 08:54:00,
2013-09-06 05:05:00,46.0,44.4,30.17,ENE,62,0.0,0.0,94,0.00,,OVC095,-99.99,VWS V12.07,2013-09-06 09:05:00,
2013-09-06 05:13:00,45.5,44.2,30.17,ENE,62,0.0,0.0,95,0.00,,OVC095,-99.99,VWS V12.07,2013-09-06 09:13:00,
2013-09-06 05:24:00,46.0,44.7,30.17,ENE,62,0.0,0.0,95,0.00,,OVC095,-99.99,VWS V12.07,2013-09-06 09:24:00,
2013-09-06 05:35:00,45.1,43.8,30.17,ENE,62,0.0,0.0,95,0.00,,OVC095,-99.99,VWS V12.07,2013-09-06 09:35:00,
2013-09-06 05:44:00,45.4,44.0,30.17,ENE,62,0.0,0.0,95,0.00,,OVC095,-99.99,VWS V12.07,2013-09-06 09:44:00,
2013-09-06 05:53:00,44.6,43.3,30.17,ENE,62,0.0,0.0,95,0.00,,OVC095,-99.99,VWS V12.07,2013-09-06 09:53:00,
2013-09-06 06:05:00,44.5,43.4,30.17,ENE,62,0.0,0.0,96,0.00,,OVC095,-99.99,VWS V12.07,2013-09-06 10:05:00,
2013-09-06 06:14:00,45.1,44.0,30.17,ENE,62,0.0,0.0,96,0.00,,OVC095,-99.99,VWS V12.07,2013-09-06 10:14:00,
2013-09-06 06:23:00,44.2,42.9,30.18,ENE,62,0.0,0.0,95,0.00,,OVC095,-99.99,VWS V12.07,2013-09-06 10:23:00,
2013-09-06 06:35:00,44.9,43.8,30.19,ENE,62,0.0,0.0,96,0.00,,OVC095,-99.99,VWS V12.07,2013-09-06 10:35:00,
2013-09-06 06:43:00,44.6,43.5,30.19,ENE,62,0.0,0.0,96,0.00,,OVC095,-99.99,VWS V12.07,2013-09-06 10:43:00,
2013-09-06 06:54:00,44.6,43.5,30.19,ENE,62,0.0,0.0,96,0.00,,OVC095,-99.99,VWS V12.07,2013-09-06 10:54:00,
2013-09-06 07:05:00,45.5,44.4,30.20,ENE,62,0.0,0.0,96,0.00,,OVC095,-99.99,VWS V12.07,2013-09-06 11:05:00,
2013-09-06 07:13:00,44.9,43.8,30.20,ENE,62,0.0,0.0,96,0.00,,OVC095,-99.99,VWS V12.07,2013-09-06 11:13:00,
2013-09-06 07:24:00,44.9,43.8,30.20,ENE,62,0.0,0.0,96,0.00,,OVC095,-99.99,VWS V12.07,2013-09-06 11:24:00,
2013-09-06 07:34:00,45.4,44.6,30.20,ENE,62,0.0,0.0,97,0.00,,OVC095,-99.99,VWS V12.07,2013-09-06 11:34:00,
2013-09-06 07:44:00,46.0,45.2,30.20,ENE,62,0.0,0.0,97,0.00,,OVC095,-99.99,VWS V12.07,2013-09-06 11:44:00,
2013-09-06 07:53:00,46.7,45.9,30.21,ENE,62,0.0,0.0,97,0.00,,OVC095,-99.99,VWS V12.07,2013-09-06 11:53:00,
2013-09-06 08:06:00,48.2,47.4,30.21,ENE,62,0.0,0.0,97,0.00,,OVC095,-99.99,VWS V12.07,2013-09-06 12:06:00,
2013-09-06 08:14:00,48.8,48.0,30.21,ENE,62,0.0,0.0,97,0.00,,OVC095,-99.99,VWS V12.07,2013-09-06 12:14:00,
2013-09-06 08:23:00,48.8,48.0,30.21,ENE,62,0.0,0.0,97,0.00,,OVC095,-99.99,VWS V12.07,2013-09-06 12:23:00,
2013-09-06 08:35:00,49.4,48.6,30.21,ENE,62,0.0,0.0,97,0.00,,OVC095,-99.99,VWS V12.07,2013-09-06 12:35:00,
2013-09-06 08:43:00,49.6,48.5,30.21,ENE,62,0.0,0.0,96,0.00,,OVC095,-99.99,VWS V12.07,2013-09-06 12:43:00,
2013-09-06 08:54:00,51.4,50.3,30.21,ENE,62,0.0,0.0,96,0.00,,OVC095,-99.99,VWS V12.07,2013-09-06 12:54:00,
2013-09-06 09:05:00,51.6,49.4,30.21,ENE,62,0.0,0.0,92,0.00,,OVC095,-99.99,VWS V12.07,2013-09-06 13:05:00,
2013-09-06 09:13:00,52.5,49.4,30.21,ENE,62,0.0,0.0,89,0.00,,OVC095,-99.99,VWS V12.07,2013-09-06 13:13:00,
2013-09-06 09:24:00,54.4,50.0,30.22,ENE,61,0.0,0.0,85,0.00,,OVC095,-99.99,VWS V12.07,2013-09-06 13:24:00,
2013-09-06 09:35:00,54.7,49.7,30.22,East,85,0.0,0.0,83,0.00,,OVC095,-99.99,VWS V12.07,2013-09-06 13:35:00,
2013-09-06 09:44:00,56.3,49.5,30.22,SSE,150,0.0,0.0,78,0.00,,OVC095,-99.99,VWS V12.07,2013-09-06 13:44:00,
2013-09-06 09:53:00,56.0,49.2,30.22,SE,143,0.0,0.0,78,0.00,,OVC095,-99.99,VWS V12.07,2013-09-06 13:53:00,
2013-09-06 10:06:00,56.7,48.5,30.22,SSE,154,0.0,1.0,74,0.00,,OVC095,-99.99,VWS V12.07,2013-09-06 14:06:00,
2013-09-06 10:14:00,58.4,49.4,30.22,East,79,0.0,1.0,72,0.00,,OVC095,-99.99,VWS V12.07,2013-09-06 14:14:00,
2013-09-06 10:24:00,58.0,47.9,30.22,SE,124,0.0,1.0,69,0.00,,OVC095,-99.99,VWS V12.07,2013-09-06 14:24:00,
2013-09-06 10:36:00,58.6,46.5,30.22,SSW,192,0.0,1.0,64,0.00,,OVC095,-99.99,VWS V12.07,2013-09-06 14:36:00,
2013-09-06 10:44:00,58.9,47.2,30.22,West,265,0.0,1.0,65,0.00,,OVC095,-99.99,VWS V12.07,2013-09-06 14:44:00,
2013-09-06 10:54:00,59.2,48.7,30.22,East,99,0.0,3.0,68,0.00,,OVC095,-99.99,VWS V12.07,2013-09-06 14:54:00,
2013-09-06 11:05:00,59.0,48.9,30.21,South,175,0.0,0.0,69,0.00,,OVC095,-99.99,VWS V12.07,2013-09-06 15:05:00,
2013-09-06 11:14:00,59.3,49.9,30.21,South,174,0.0,1.0,71,0.00,,OVC095,-99.99,VWS V12.07,2013-09-06 15:14:00,
2013-09-06 11:24:00,59.8,48.4,30.21,WSW,239,0.0,2.0,66,0.00,,OVC095,-99.99,VWS V12.07,2013-09-06 15:24:00,
2013-09-06 11:35:00,61.2,50.6,30.21,WSW,239,0.0,1.0,68,0.00,,OVC095,-99.99,VWS V12.07,2013-09-06 15:35:00,
2013-09-06 11:44:00,60.2,49.6,30.21,WSW,240,0.0,1.0,68,0.00,,OVC095,-99.99,VWS V12.07,2013-09-06 15:44:00,
2013-09-06 11:53:00,60.9,50.3,30.21,WSW,240,0.0,1.0,68,0.00,,OVC095,-99.99,VWS V12.07,2013-09-06 15:53:00,
2013-09-06 12:02:00,61.0,49.6,30.20,WSW,240,0.0,0.0,66,0.00,,OVC095,-99.99,VWS V12.07,2013-09-06 16:02:00,
2013-09-06 12:14:00,61.6,46.2,30.20,SW,234,0.0,2.0,57,0.00,,OVC095,-99.99,VWS V12.07,2013-09-06 16:14:00,
2013-09-06 12:23:00,63.9,47.9,30.20,SW,234,0.0,2.0,56,0.00,,OVC095,-99.99,VWS V12.07,2013-09-06 16:23:00,
2013-09-06 12:35:00,64.5,46.0,30.20,ENE,68,0.0,2.0,51,0.00,,OVC095,-99.99,VWS V12.07,2013-09-06 16:35:00,
2013-09-06 12:43:00,65.3,48.7,30.20,SW,216,0.0,4.0,55,0.00,,OVC095,-99.99,VWS V12.07,2013-09-06 16:43:00,
2013-09-06 12:54:00,65.8,48.2,30.19,SE,143,0.0,4.0,53,0.00,,OVC095,-99.99,VWS V12.07,2013-09-06 16:54:00,
2013-09-06 13:05:00,66.6,50.0,30.18,SSW,199,0.0,0.0,55,0.00,,OVC095,-99.99,VWS V12.07,2013-09-06 17:05:00,
2013-09-06 13:13:00,66.0,45.2,30.18,SSE,148,2.0,5.0,47,0.00,,OVC095,-99.99,VWS V12.07,2013-09-06 17:13:00,
2013-09-06 13:24:00,66.8,45.4,30.18,South,188,0.0,5.0,46,0.00,,OVC095,-99.99,VWS V12.07,2013-09-06 17:24:00,
2013-09-06 13:35:00,67.6,46.1,30.18,SSE,148,3.0,5.0,46,0.00,,OVC095,-99.99,VWS V12.07,2013-09-06 17:35:00,
2013-09-06 13:44:00,67.8,49.0,30.18,NE,35,0.0,5.0,51,0.00,,OVC095,-99.99,VWS V12.07,2013-09-06 17:44:00,
2013-09-06 13:53:00,67.6,47.8,30.17,South,174,0.0,6.0,49,0.00,,OVC095,-99.99,VWS V12.07,2013-09-06 17:53:00,
2013-09-06 14:05:00,67.6,46.7,30.16,WSW,257,3.0,3.0,47,0.00,,OVC095,-99.99,VWS V12.07,2013-09-06 18:05:00,
2013-09-06 14:14:00,68.3,49.0,30.16,South,189,1.0,3.0,50,0.00,,OVC095,-99.99,VWS V12.07,2013-09-06 18:14:00,
2013-09-06 14:23:00,69.4,49.4,30.15,SSW,198,0.0,3.0,49,0.00,,OVC095,-99.99,VWS V12.07,2013-09-06 18:23:00,
2013-09-06 14:35:00,68.8,47.2,30.15,SSW,202,0.0,2.0,46,0.00,,OVC095,-99.99,VWS V12.07,2013-09-06 18:35:00,
2013-09-06 14:43:00,67.6,47.2,30.15,SSW,202,0.0,2.0,48,0.00,,OVC095,-99.99,VWS V12.07,2013-09-06 18:43:00,
2013-09-06 14:54:00,66.8,51.1,30.15,SSW,202,0.0,2.0,57,0.00,,OVC095,-99.99,VWS V12.07,2013-09-06 18:54:00,
2013-09-06 15:05:00,66.6,50.0,30.14,South,179,1.0,2.0,55,0.00,,OVC095,-99.99,VWS V12.07,2013-09-06 19:05:00,
2013-09-06 15:13:00,66.4,51.2,30.14,South,179,0.0,2.0,58,0.00,,OVC095,-99.99,VWS V12.07,2013-09-06 19:13:00,
2013-09-06 15:24:00,65.0,49.4,30.13,South,179,0.0,2.0,57,0.00,,OVC095,-99.99,VWS V12.07,2013-09-06 19:24:00,
2013-09-06 15:35:00,66.9,45.5,30.13,South,169,0.0,2.0,46,0.00,,OVC095,-99.99,VWS V12.07,2013-09-06 19:35:00,
2013-09-06 15:44:00,68.4,48.0,30.13,South,169,0.0,2.0,48,0.00,,OVC095,-99.99,VWS V12.07,2013-09-06 19:44:00,
2013-09-06 15:54:00,69.8,46.9,30.12,South,169,0.0,2.0,44,0.00,,OVC095,-99.99,VWS V12.07,2013-09-06 19:54:00,
2013-09-06 16:05:00,70.3,50.3,30.11,South,169,0.0,0.0,49,0.00,,OVC095,-99.99,VWS V12.07,2013-09-06 20:05:00,
2013-09-06 16:14:00,69.3,52.0,30.11,South,169,0.0,0.0,54,0.00,,OVC095,-99.99,VWS V12.07,2013-09-06 20:14:00,
2013-09-06 16:24:00,69.3,46.5,30.11,SE,143,3.0,3.0,44,0.00,,OVC095,-99.99,VWS V12.07,2013-09-06 20:24:00,
2013-09-06 16:35:00,69.3,45.9,30.10,SSE,162,3.0,3.0,43,0.00,,OVC095,-99.99,VWS V12.07,2013-09-06 20:35:00,
2013-09-06 16:43:00,69.3,46.5,30.10,ESE,121,0.0,3.0,44,0.00,,OVC095,-99.99,VWS V12.07,2013-09-06 20:43:00,
2013-09-06 16:54:00,69.8,51.9,30.10,SE,128,0.0,3.0,53,0.00,,OVC095,-99.99,VWS V12.07,2013-09-06 20:54:00,
2013-09-06 17:05:00,70.1,46.6,30.09,SSE,164,0.0,1.0,43,0.00,,OVC095,-99.99,VWS V12.07,2013-09-06 21:05:00,
2013-09-06 17:13:00,70.4,48.1,30.09,SSE,164,0.0,1.0,45,0.00,,OVC095,-99.99,VWS V12.07,2013-09-06 21:13:00,
2013-09-06 17:24:00,69.1,51.8,30.09,SSE,164,0.0,1.0,54,0.00,,OVC095,-99.99,VWS V12.07,2013-09-06 21:24:00,
2013-09-06 17:35:00,67.1,49.4,30.10,SSE,164,0.0,0.0,53,0.00,,OVC095,-99.99,VWS V12.07,2013-09-06 21:35:00,
2013-09-06 17:44:00,66.1,51.8,30.10,SSE,164,0.0,0.0,60,0.00,,OVC095,-99.99,VWS V12.07,2013-09-06 21:44:00,
2013-09-06 17:53:00,65.2,51.0,30.09,SSE,164,0.0,0.0,60,0.00,,OVC095,-99.99,VWS V12.07,2013-09-06 21:53:00,
2013-09-06 18:05:00,64.3,52.7,30.09,SSE,164,0.0,0.0,66,0.00,,OVC095,-99.99,VWS V12.07,2013-09-06 22:05:00,
2013-09-06 18:14:00,63.7,51.3,30.09,SSE,164,0.0,0.0,64,0.00,,OVC095,-99.99,VWS V12.07,2013-09-06 22:14:00,
2013-09-06 18:24:00,63.1,53.2,30.09,SSE,164,0.0,0.0,70,0.00,,OVC095,-99.99,VWS V12.07,2013-09-06 22:24:00,
2013-09-06 18:35:00,62.1,52.2,30.09,SSE,164,0.0,0.0,70,0.00,,OVC095,-99.99,VWS V12.07,2013-09-06 22:35:00,
2013-09-06 18:44:00,61.5,52.4,30.09,SSE,164,0.0,0.0,72,0.00,,OVC095,-99.99,VWS V12.07,2013-09-06 22:44:00,
2013-09-06 18:54:00,60.9,52.6,30.09,SSE,164,0.0,0.0,74,0.00,,OVC095,-99.99,VWS V12.07,2013-09-06 22:54:00,
2013-09-06 19:05:00,60.1,52.9,30.08,SSE,164,0.0,0.0,77,0.00,,OVC095,-99.99,VWS V12.07,2013-09-06 23:05:00,
2013-09-06 19:14:00,59.5,52.6,30.08,SSE,164,0.0,0.0,78,0.00,,OVC095,-99.99,VWS V12.07,2013-09-06 23:14:00,
2013-09-06 19:24:00,58.7,52.9,30.08,SSE,164,0.0,0.0,81,0.00,,OVC095,-99.99,VWS V12.07,2013-09-06 23:24:00,
2013-09-06 19:35:00,58.3,52.5,30.08,SSE,164,0.0,0.0,81,0.00,,OVC095,-99.99,VWS V12.07,2013-09-06 23:35:00,
2013-09-06 19:44:00,57.8,53.0,30.08,SSE,164,0.0,0.0,84,0.00,,OVC095,-99.99,VWS V12.07,2013-09-06 23:44:00,
2013-09-06 19:53:00,56.9,51.8,30.08,SSE,164,0.0,0.0,83,0.00,,OVC095,-99.99,VWS V12.07,2013-09-06 23:53:00,
2013-09-06 20:06:00,56.5,52.4,30.09,SSE,164,0.0,0.0,86,0.00,,OVC095,-99.99,VWS V12.07,2013-09-07 00:06:00,
2013-09-06 20:14:00,56.3,52.2,30.09,SSE,164,0.0,0.0,86,0.00,,OVC095,-99.99,VWS V12.07,2013-09-07 00:14:00,
2013-09-06 20:24:00,55.9,52.1,30.09,SSE,164,0.0,0.0,87,0.00,,OVC095,-99.99,VWS V12.07,2013-09-07 00:24:00,
2013-09-06 20:35:00,55.6,52.1,30.09,SSE,164,0.0,0.0,88,0.00,,OVC095,-99.99,VWS V12.07,2013-09-07 00:35:00,
2013-09-06 20:44:00,55.3,52.1,30.09,SSE,164,0.0,0.0,89,0.00,,OVC095,-99.99,VWS V12.07,2013-09-07 00:44:00,
2013-09-06 20:54:00,55.6,52.4,30.09,SSE,162,0.0,0.0,89,0.00,,OVC095,-99.99,VWS V12.07,2013-09-07 00:54:00,
2013-09-06 21:05:00,54.5,51.0,30.08,SSE,162,0.0,0.0,88,0.00,,OVC095,-99.99,VWS V12.07,2013-09-07 01:05:00,
2013-09-06 21:13:00,54.4,51.2,30.08,SSE,162,0.0,0.0,89,0.00,,OVC095,-99.99,VWS V12.07,2013-09-07 01:13:00,
2013-09-06 21:24:00,54.1,50.6,30.08,SSE,162,0.0,0.0,88,0.00,,OVC095,-99.99,VWS V12.07,2013-09-07 01:24:00,
2013-09-06 21:35:00,53.5,50.0,30.09,SSE,162,0.0,0.0,88,0.00,,OVC095,-99.99,VWS V12.07,2013-09-07 01:35:00,
2013-09-06 21:44:00,53.6,50.1,30.09,SSE,162,0.0,0.0,88,0.00,,OVC095,-99.99,VWS V12.07,2013-09-07 01:44:00,
2013-09-06 21:54:00,52.6,49.5,30.08,SSE,162,0.0,0.0,89,0.00,,OVC095,-99.99,VWS V12.07,2013-09-07 01:54:00,
2013-09-06 22:06:00,52.2,49.4,30.08,SSE,162,0.0,0.0,90,0.00,,OVC095,-99.99,VWS V12.07,2013-09-07 02:06:00,
2013-09-06 22:14:00,52.5,49.7,30.08,SSE,162,0.0,0.0,90,0.00,,OVC095,-99.99,VWS V12.07,2013-09-07 02:14:00,
2013-09-06 22:24:00,52.2,49.7,30.08,SSE,162,0.0,0.0,91,0.00,,OVC095,-99.99,VWS V12.07,2013-09-07 02:24:00,
2013-09-06 22:35:00,51.6,49.4,30.08,SSE,162,0.0,0.0,92,0.00,,OVC095,-99.99,VWS V12.07,2013-09-07 02:35:00,
2013-09-06 22:43:00,51.4,49.2,30.08,SSE,162,0.0,0.0,92,0.00,,OVC095,-99.99,VWS V12.07,2013-09-07 02:43:00,
2013-09-06 22:54:00,51.9,49.7,30.08,SSE,162,0.0,0.0,92,0.00,,OVC095,-99.99,VWS V12.07,2013-09-07 02:54:00,
2013-09-06 23:05:00,51.0,49.0,30.07,SSE,162,0.0,0.0,93,0.00,,OVC095,-99.99,VWS V12.07,2013-09-07 03:05:00,
2013-09-06 23:13:00,51.7,49.8,30.07,SSE,162,0.0,0.0,93,0.00,,OVC095,-99.99,VWS V12.07,2013-09-07 03:13:00,
2013-09-06 23:24:00,51.1,49.2,30.07,SSE,162,0.0,0.0,93,0.00,,OVC095,-99.99,VWS V12.07,2013-09-07 03:24:00,
2013-09-06 23:35:00,51.0,49.0,30.07,SSE,162,0.0,0.0,93,0.00,,OVC095,-99.99,VWS V12.07,2013-09-07 03:35:00,
2013-09-06 23:44:00,51.4,49.2,30.07,SSE,162,0.0,0.0,92,0.00,,OVC095,-99.99,VWS V12.07,2013-09-07 03:44:00,
2013-09-06 23:53:00,50.5,48.6,30.06,SSE,162,0.0,0.0,93,0.00,,OVC095,-99.99,VWS V12.07,2013-09-07 03:53:00,